Time;durP1;ratioP1;P1;durP2;ratioP2;P2;SDS_P1;SDS_P2;PMS_P1;PMS_P2;Temp;Humidity;BMP_temperature;BMP_pressure;BME280_temperature;BME280_humidity;BME280_pressure;Samples;Min_cycle;Max_cycle;Signal;HPM_P1;HPM_P2
2021/05/11 00:00:48;;;;;;;2.50;1.40;;;21.00;55.80;;;;;;4721760;30;20047;-89
2021/05/11 00:03:14;;;;;;;1.98;1.23;;;21.00;55.80;;;;;;4722252;30;20044;-88
2021/05/11 00:05:42;;;;;;;2.38;1.30;;;21.00;55.80;;;;;;4722454;30;20032;-88
2021/05/11 00:08:13;;;;;;;2.65;1.40;;;20.90;55.80;;;;;;4727615;30;20093;-88
2021/05/11 00:10:39;;;;;;;1.10;1.00;;;21.00;55.90;;;;;;4721775;30;20127;-88
2021/05/11 00:13:08;;;;;;;1.90;1.10;;;20.90;55.90;;;;;;4753906;30;20115;-88
2021/05/11 00:15:34;;;;;;;2.13;1.10;;;20.90;55.90;;;;;;4736077;30;20063;-86
2021/05/11 00:18:02;;;;;;;1.48;1.15;;;20.80;55.90;;;;;;4762047;30;20040;-88
2021/05/11 00:20:30;;;;;;;1.30;1.00;;;20.80;55.90;;;;;;4751223;30;20089;-88
2021/05/11 00:22:56;;;;;;;2.13;1.30;;;20.80;56.00;;;;;;4747631;30;20047;-88
2021/05/11 00:25:22;;;;;;;1.98;1.25;;;20.80;55.90;;;;;;4722410;30;20313;-88
2021/05/11 00:27:48;;;;;;;1.83;1.33;;;20.80;56.00;;;;;;4735959;30;20025;-88
2021/05/11 00:30:15;;;;;;;1.98;1.27;;;20.70;56.00;;;;;;4737922;30;20083;-88
2021/05/11 00:32:41;;;;;;;1.80;1.15;;;20.70;56.10;;;;;;4753994;30;20055;-88
2021/05/11 00:35:07;;;;;;;2.15;1.08;;;20.70;56.00;;;;;;4739509;30;20032;-88
2021/05/11 00:37:35;;;;;;;2.17;1.05;;;20.70;56.00;;;;;;4754756;30;20028;-88
2021/05/11 00:40:02;;;;;;;1.23;1.05;;;20.60;56.00;;;;;;4725633;30;20532;-88
2021/05/11 00:42:28;;;;;;;1.55;1.27;;;20.60;56.10;;;;;;4754462;30;20040;-88
2021/05/11 00:44:56;;;;;;;2.20;1.55;;;20.60;56.10;;;;;;4725337;30;20136;-88
2021/05/11 00:47:22;;;;;;;1.75;1.30;;;20.60;56.10;;;;;;4742895;30;20031;-88
2021/05/11 00:49:50;;;;;;;2.60;1.27;;;20.50;56.10;;;;;;4747105;30;20028;-88
2021/05/11 00:52:17;;;;;;;1.15;1.00;;;20.50;56.10;;;;;;4739366;30;20067;-88
2021/05/11 00:54:43;;;;;;;2.42;1.20;;;20.50;56.20;;;;;;4754027;30;20047;-89
2021/05/11 00:57:10;;;;;;;1.52;1.10;;;20.40;56.20;;;;;;4754627;30;20054;-88
2021/05/11 00:59:37;;;;;;;1.83;1.10;;;20.40;56.20;;;;;;4739675;30;20482;-88
2021/05/11 01:02:05;;;;;;;1.95;1.20;;;20.40;56.20;;;;;;4739492;30;20476;-88
2021/05/11 01:04:32;;;;;;;1.60;1.10;;;20.40;56.30;;;;;;4739879;30;20527;-87
2021/05/11 01:06:58;;;;;;;1.90;1.10;;;20.30;56.30;;;;;;4739112;30;20064;-87
2021/05/11 01:09:25;;;;;;;1.60;1.10;;;20.30;56.30;;;;;;4739284;30;20074;-88
2021/05/11 01:11:52;;;;;;;1.30;1.10;;;20.30;56.30;;;;;;4738962;30;20039;-88
2021/05/11 01:14:19;;;;;;;1.20;1.10;;;20.30;56.40;;;;;;4751479;30;20122;-89
2021/05/11 01:16:48;;;;;;;2.13;1.40;;;20.20;56.30;;;;;;4754147;30;20083;-88
2021/05/11 01:19:22;;;;;;;2.30;1.27;;;20.20;56.40;;;;;;4725257;30;20502;-88
2021/05/11 01:24:24;;;;;;;1.60;1.20;;;20.20;56.50;;;;;;4747421;30;20123;-88
2021/05/11 01:27:06;;;;;;;1.48;1.27;;;20.10;56.40;;;;;;4742482;30;20036;-88
2021/05/11 01:29:58;;;;;;;1.35;1.10;;;20.10;56.50;;;;;;4747213;30;20044;-89
2021/05/11 01:56:26;;;;;;;1.95;1.30;;;19.80;56.80;;;;;;4753753;30;20030;-88
2021/05/11 02:10:18;;;;;;;2.00;1.20;;;19.70;56.90;;;;;;4741872;30;20055;-88
2021/05/11 02:23:26;;;;;;;2.17;1.40;;;19.60;57.10;;;;;;4752945;30;20044;-88
2021/05/11 02:25:52;;;;;;;2.42;1.45;;;19.50;57.10;;;;;;4752540;30;20489;-88
2021/05/11 02:28:18;;;;;;;2.95;1.60;;;19.50;57.10;;;;;;4738532;30;20044;-89
2021/05/11 02:30:45;;;;;;;2.25;1.38;;;19.50;57.20;;;;;;4752796;30;20052;-89
2021/05/11 02:33:11;;;;;;;3.25;1.58;;;19.50;57.20;;;;;;4737923;30;20490;-88
2021/05/11 02:35:36;;;;;;;2.60;1.60;;;19.40;57.20;;;;;;4738806;30;20047;-88
2021/05/11 02:38:03;;;;;;;2.50;1.45;;;19.40;57.20;;;;;;4725705;30;20024;-87
2021/05/11 02:40:29;;;;;;;2.42;1.50;;;19.40;57.20;;;;;;4737903;30;20050;-89
2021/05/11 02:43:05;;;;;;;2.63;1.58;;;19.40;57.30;;;;;;4724168;30;20062;-89
2021/05/11 02:45:34;;;;;;;2.30;1.60;;;19.40;57.30;;;;;;4752983;30;20041;-90
2021/05/11 02:48:00;;;;;;;2.08;1.30;;;19.40;57.30;;;;;;4737986;30;20062;-89
2021/05/11 02:50:29;;;;;;;2.47;1.50;;;19.40;57.30;;;;;;4752666;30;20063;-89
2021/05/11 02:52:55;;;;;;;2.42;1.67;;;19.30;57.30;;;;;;4750784;30;20036;-89
2021/05/11 02:55:22;;;;;;;1.83;1.50;;;19.30;57.40;;;;;;4737699;30;20075;-89
2021/05/11 02:57:49;;;;;;;2.03;1.35;;;19.30;57.40;;;;;;4738608;30;20036;-89
2021/05/11 03:00:18;;;;;;;2.72;1.52;;;19.30;57.40;;;;;;4737315;30;20054;-89
2021/05/11 03:02:44;;;;;;;3.63;1.80;;;19.30;57.40;;;;;;4752573;30;20074;-89
2021/05/11 03:05:14;;;;;;;2.50;1.70;;;19.20;57.40;;;;;;4722755;30;20041;-89
2021/05/11 03:07:43;;;;;;;2.85;1.80;;;19.20;57.40;;;;;;4752023;30;20047;-88
2021/05/11 03:10:10;;;;;;;2.47;1.67;;;19.20;57.40;;;;;;4736848;30;20190;-90
2021/05/11 03:12:37;;;;;;;2.00;1.33;;;19.20;57.50;;;;;;4751549;30;20044;-89
2021/05/11 03:15:07;;;;;;;3.33;1.55;;;19.20;57.50;;;;;;4739477;30;20036;-89
2021/05/11 03:17:40;;;;;;;2.80;1.55;;;19.10;57.50;;;;;;4755888;30;20199;-89
2021/05/11 03:20:08;;;;;;;1.67;1.40;;;19.10;57.50;;;;;;4720495;30;20051;-90
2021/05/11 03:22:34;;;;;;;1.80;1.50;;;19.10;57.60;;;;;;4722741;30;20046;-89
2021/05/11 03:25:03;;;;;;;2.75;1.90;;;19.10;57.60;;;;;;4751655;30;20036;-89
2021/05/11 03:27:29;;;;;;;2.17;1.45;;;19.00;57.60;;;;;;4736892;30;20039;-90
2021/05/11 03:29:55;;;;;;;2.83;1.67;;;19.00;57.60;;;;;;4751682;30;20130;-90
2021/05/11 03:32:21;;;;;;;2.15;1.58;;;19.00;57.60;;;;;;4736913;30;20124;-89
2021/05/11 03:34:47;;;;;;;2.85;1.65;;;19.00;57.70;;;;;;4736796;30;20402;-90
2021/05/11 03:37:13;;;;;;;2.38;1.42;;;19.00;57.70;;;;;;4722094;30;20036;-90
2021/05/11 03:39:40;;;;;;;2.50;1.55;;;19.00;57.70;;;;;;4751974;30;20040;-89
2021/05/11 03:42:28;;;;;;;2.60;1.63;;;18.90;57.70;;;;;;4750791;30;20043;-90
2021/05/11 03:44:58;;;;;;;2.15;1.63;;;18.90;57.80;;;;;;4738470;30;20410;-89
2021/05/11 03:47:25;;;;;;;3.08;1.58;;;18.90;57.80;;;;;;4747986;30;20044;-89
2021/05/11 03:49:51;;;;;;;2.03;1.70;;;18.90;57.80;;;;;;4751547;30;20044;-89
2021/05/11 03:52:16;;;;;;;3.15;1.60;;;18.90;57.90;;;;;;4751418;30;20028;-90
2021/05/11 03:54:42;;;;;;;2.80;1.50;;;18.80;57.80;;;;;;4751690;30;20502;-89
2021/05/11 03:57:08;;;;;;;2.28;1.70;;;18.80;57.90;;;;;;4736326;30;20047;-89
2021/05/11 03:59:36;;;;;;;2.88;1.80;;;18.90;57.90;;;;;;4736907;30;20036;-89
2021/05/11 04:02:03;;;;;;;1.80;1.50;;;18.80;57.90;;;;;;4751594;30;20048;-89
2021/05/11 04:04:29;;;;;;;2.28;1.55;;;18.80;57.90;;;;;;4722233;30;20093;-89
2021/05/11 04:06:55;;;;;;;2.35;1.77;;;18.80;57.90;;;;;;4751727;30;20446;-88
2021/05/11 04:17:04;;;;;;;2.80;1.80;;;18.70;58.00;;;;;;4744907;30;20060;-89
2021/05/11 04:19:31;;;;;;;1.52;1.42;;;18.70;58.00;;;;;;4736317;30;20055;-89
2021/05/11 04:21:56;;;;;;;2.42;1.67;;;18.70;58.00;;;;;;4749435;30;20032;-89
2021/05/11 04:24:25;;;;;;;2.17;1.77;;;18.60;58.00;;;;;;4748164;30;20044;-89
2021/05/11 04:26:51;;;;;;;2.35;1.65;;;18.60;58.10;;;;;;4736229;30;20036;-89
2021/05/11 04:29:17;;;;;;;2.03;1.80;;;18.60;58.10;;;;;;4736207;30;20048;-89
2021/05/11 04:31:43;;;;;;;3.08;2.03;;;18.60;58.10;;;;;;4736814;30;20051;-90
2021/05/11 04:34:12;;;;;;;2.75;1.70;;;18.60;58.20;;;;;;4736501;30;20028;-90
2021/05/11 04:36:41;;;;;;;2.97;1.90;;;18.60;58.20;;;;;;4740089;30;20562;-89
2021/05/11 04:39:07;;;;;;;2.63;1.77;;;18.50;58.20;;;;;;4720783;30;20032;-89
2021/05/11 04:41:33;;;;;;;2.33;1.55;;;18.50;58.20;;;;;;4736812;30;20060;-89
2021/05/11 04:44:03;;;;;;;2.08;1.63;;;18.50;58.20;;;;;;4731690;30;20059;-89
2021/05/11 04:46:51;;;;;;;2.13;1.73;;;18.50;58.30;;;;;;4720773;30;20040;-88
2021/05/11 04:49:17;;;;;;;2.75;1.90;;;18.40;58.30;;;;;;4752338;30;20036;-89
2021/05/11 04:51:43;;;;;;;2.72;1.98;;;18.40;58.30;;;;;;4751869;30;20032;-89
2021/05/11 04:54:10;;;;;;;2.30;1.70;;;18.40;58.30;;;;;;4736202;30;20036;-89
2021/05/11 04:56:36;;;;;;;1.88;1.70;;;18.40;58.30;;;;;;4737076;30;20082;-89
2021/05/11 04:59:02;;;;;;;2.47;1.55;;;18.40;58.40;;;;;;4751230;30;20061;-88
2021/05/11 05:01:28;;;;;;;2.08;1.63;;;18.40;58.40;;;;;;4735827;30;20032;-89
2021/05/11 05:03:57;;;;;;;3.33;1.95;;;18.40;58.40;;;;;;4737011;30;20474;-89
2021/05/11 05:06:22;;;;;;;2.08;1.63;;;18.40;58.40;;;;;;4752504;30;20402;-88
2021/05/11 05:08:48;;;;;;;2.45;1.75;;;18.40;58.50;;;;;;4736761;30;20044;-89
2021/05/11 05:11:17;;;;;;;3.15;1.70;;;18.30;58.40;;;;;;4726467;30;20483;-91
2021/05/11 05:13:42;;;;;;;2.15;1.63;;;18.30;58.50;;;;;;4739906;30;20040;-89
2021/05/11 05:16:08;;;;;;;2.35;1.73;;;18.30;58.50;;;;;;4749818;30;20044;-89
2021/05/11 05:18:34;;;;;;;2.70;1.95;;;18.30;58.50;;;;;;4758511;30;20056;-87
2021/05/11 05:21:04;;;;;;;3.35;1.70;;;18.30;58.60;;;;;;4739771;30;20062;-91
2021/05/11 05:23:34;;;;;;;2.50;1.77;;;18.30;58.60;;;;;;4753925;30;20507;-89
2021/05/11 05:26:03;;;;;;;3.15;1.80;;;18.30;58.60;;;;;;4754052;30;20036;-90
2021/05/11 05:28:29;;;;;;;3.33;2.00;;;18.30;58.60;;;;;;4754180;30;20043;-92
2021/05/11 05:31:01;;;;;;;2.05;1.60;;;18.20;58.60;;;;;;4752282;30;20044;-96
2021/05/11 05:33:34;;;;;;;2.15;1.60;;;18.30;58.70;;;;;;4758217;30;20541;-93
2021/05/11 05:36:00;;;;;;;2.85;2.00;;;18.20;58.70;;;;;;4729889;30;20041;-88
2021/05/11 05:38:28;;;;;;;2.00;1.65;;;18.30;58.70;;;;;;4752145;30;20170;-83
2021/05/11 05:41:00;;;;;;;2.58;1.90;;;18.30;58.70;;;;;;4757480;30;20048;-83
2021/05/11 05:43:26;;;;;;;2.40;1.85;;;18.20;58.70;;;;;;4746634;30;20040;-87
2021/05/11 05:45:53;;;;;;;1.90;1.65;;;18.30;58.80;;;;;;4742215;30;20036;-82
2021/05/11 05:48:20;;;;;;;2.72;1.90;;;18.30;58.80;;;;;;4770757;30;20023;-80
2021/05/11 05:50:47;;;;;;;2.95;1.90;;;18.20;58.80;;;;;;4754642;30;20046;-80
2021/05/11 05:53:15;;;;;;;2.53;2.00;;;18.20;58.80;;;;;;4752916;30;20036;-85
2021/05/11 05:55:41;;;;;;;2.08;1.77;;;18.20;58.80;;;;;;4751479;30;20466;-87
2021/05/11 05:58:08;;;;;;;2.42;1.90;;;18.20;58.80;;;;;;4739204;30;20032;-80
2021/05/11 06:00:33;;;;;;;2.53;1.90;;;18.20;58.80;;;;;;4738359;30;20421;-89
2021/05/11 06:03:19;;;;;;;2.97;1.80;;;18.20;58.90;;;;;;4739325;30;20048;-85
2021/05/11 06:05:45;;;;;;;2.15;1.48;;;18.20;58.90;;;;;;4759626;30;20025;-86
2021/05/11 06:08:11;;;;;;;1.88;1.63;;;18.20;58.90;;;;;;4737882;30;20032;-85
2021/05/11 06:10:37;;;;;;;2.10;1.60;;;18.20;58.90;;;;;;4754587;30;20055;-91
2021/05/11 06:13:09;;;;;;;2.72;1.70;;;18.20;58.90;;;;;;4741065;30;20059;-81
2021/05/11 06:18:20;;;;;;;3.70;2.10;;;18.20;59.00;;;;;;4755626;30;20131;-82
2021/05/11 06:20:46;;;;;;;2.95;1.80;;;18.20;59.00;;;;;;4752455;30;20136;-82
2021/05/11 06:23:12;;;;;;;2.50;1.90;;;18.20;59.10;;;;;;4739370;30;20041;-83
2021/05/11 06:25:42;;;;;;;3.58;1.98;;;18.20;59.10;;;;;;4752223;30;20025;-83
2021/05/11 06:28:08;;;;;;;2.03;1.70;;;18.20;59.10;;;;;;4751515;30;20044;-82
2021/05/11 06:30:34;;;;;;;2.10;1.60;;;18.20;59.10;;;;;;4737674;30;20264;-83
2021/05/11 06:32:59;;;;;;;2.63;1.63;;;18.20;59.10;;;;;;4737537;30;20046;-82
2021/05/11 06:35:26;;;;;;;2.13;1.73;;;18.20;59.20;;;;;;4717851;30;20036;-83
2021/05/11 06:37:57;;;;;;;2.30;1.50;;;18.20;59.20;;;;;;4738002;30;20044;-83
2021/05/11 06:40:23;;;;;;;2.63;1.80;;;18.20;59.30;;;;;;4753472;30;20067;-86
2021/05/11 06:42:49;;;;;;;1.98;1.58;;;18.20;59.20;;;;;;4737728;30;20039;-83
2021/05/11 06:52:39;;;;;;;3.00;1.70;;;18.20;59.30;;;;;;4748598;30;20485;-83
2021/05/11 06:53:30;;;;;;;2.90;1.80;;;18.20;59.30;;;;;;4753101;30;20055;-83
2021/05/11 06:55:56;;;;;;;2.17;1.63;;;18.30;59.30;;;;;;4753942;30;20040;-84
2021/05/11 06:58:21;;;;;;;2.58;1.90;;;18.30;59.30;;;;;;4762415;30;20036;-82
2021/05/11 07:00:47;;;;;;;1.90;1.52;;;18.30;59.40;;;;;;4737235;30;20123;-84
2021/05/11 07:03:13;;;;;;;2.28;1.58;;;18.30;59.40;;;;;;4757391;30;20039;-82
2021/05/11 07:05:39;;;;;;;2.42;1.65;;;18.30;59.40;;;;;;4729344;30;20024;-84
2021/05/11 07:10:35;;;;;;;2.15;1.75;;;18.40;59.40;;;;;;4751628;30;20409;-83
2021/05/11 07:15:33;;;;;;;2.85;1.88;;;18.40;59.40;;;;;;4744381;30;20051;-83
2021/05/11 07:18:25;;;;;;;2.17;1.60;;;18.50;59.50;;;;;;4751405;30;20056;-83
2021/05/11 07:20:59;;;;;;;2.03;1.60;;;18.50;59.70;;;;;;4725452;30;20078;-82
2021/05/11 07:23:25;;;;;;;2.13;1.55;;;18.50;59.60;;;;;;4750402;30;20109;-81
2021/05/11 07:26:09;;;;;;;2.72;1.92;;;18.50;59.50;;;;;;4750714;30;20127;-82
2021/05/11 07:31:12;;;;;;;2.65;1.80;;;18.60;59.50;;;;;;4751269;30;20290;-82
2021/05/11 07:33:47;;;;;;;2.58;1.77;;;18.70;59.70;;;;;;4736267;30;20047;-81
2021/05/11 07:36:13;;;;;;;2.67;1.98;;;18.60;59.60;;;;;;4737337;30;20032;-82
2021/05/11 07:38:39;;;;;;;3.28;1.88;;;18.70;59.70;;;;;;4735778;30;20032;-82
2021/05/11 07:41:05;;;;;;;2.40;1.58;;;18.70;59.70;;;;;;4755932;30;20122;-82
2021/05/11 07:43:33;;;;;;;3.03;2.10;;;18.70;59.70;;;;;;4761668;30;20044;-82
2021/05/11 07:48:59;;;;;;;2.80;1.75;;;18.90;59.80;;;;;;4751017;30;20056;-82
2021/05/11 08:01:57;;;;;;;2.57;1.63;;;19.10;59.60;;;;;;4751127;30;20066;-81
2021/05/11 08:05:13;;;;;;;1.88;1.58;;;19.30;59.30;;;;;;4750921;30;20497;-82
2021/05/11 08:15:48;;;;;;;3.00;1.83;;;19.60;59.10;;;;;;4750220;30;20036;-83
2021/05/11 08:28:54;;;;;;;2.70;1.80;;;19.80;58.70;;;;;;4738335;30;20052;-80
2021/05/11 08:31:20;;;;;;;2.67;1.73;;;19.90;58.70;;;;;;4736035;30;20037;-82
2021/05/11 08:33:46;;;;;;;2.58;1.70;;;20.00;58.70;;;;;;4736877;30;20032;-79
2021/05/11 08:36:12;;;;;;;3.53;2.10;;;20.00;58.60;;;;;;4761254;30;20466;-81
2021/05/11 08:38:37;;;;;;;2.65;1.65;;;20.10;58.60;;;;;;4735383;30;20372;-81
2021/05/11 08:41:03;;;;;;;2.00;1.55;;;20.10;58.60;;;;;;4741332;30;20040;-81
2021/05/11 08:43:37;;;;;;;1.80;1.52;;;20.10;58.60;;;;;;4750291;30;20449;-81
2021/05/11 08:46:05;;;;;;;1.63;1.40;;;20.10;58.60;;;;;;4759500;30;20050;-81
2021/05/11 08:48:31;;;;;;;1.70;1.50;;;20.20;58.40;;;;;;4735854;30;20354;-81
2021/05/11 09:16:25;;;;;;;2.40;1.73;;;20.40;58.30;;;;;;4743345;30;20043;-83
2021/05/11 09:26:53;;;;;;;2.13;1.73;;;20.50;58.30;;;;;;4765260;30;20035;-85
2021/05/11 09:29:41;;;;;;;3.58;2.10;;;20.50;58.30;;;;;;4727973;30;20050;-83
2021/05/11 10:48:22;;;;;;;2.28;1.70;;;21.10;58.10;;;;;;4753042;30;20071;-87
2021/05/11 10:50:50;;;;;;;2.03;1.80;;;21.10;57.90;;;;;;4737731;30;20455;-87
2021/05/11 10:53:44;;;;;;;2.35;1.80;;;21.20;57.80;;;;;;4752509;30;20024;-86
2021/05/11 10:56:32;;;;;;;2.67;1.50;;;21.30;57.90;;;;;;4768877;30;20039;-88
2021/05/11 10:59:13;;;;;;;2.67;1.90;;;21.30;57.60;;;;;;4757294;30;20078;-87
2021/05/11 11:01:48;;;;;;;2.35;1.70;;;21.40;57.50;;;;;;4737664;30;20032;-88
2021/05/11 11:04:19;;;;;;;2.78;1.83;;;21.50;57.40;;;;;;4764948;30;20050;-86
2021/05/11 11:07:09;;;;;;;2.00;1.33;;;21.60;57.40;;;;;;4742884;30;20076;-89
2021/05/11 11:09:36;;;;;;;2.25;1.70;;;21.70;57.40;;;;;;4737390;30;20056;-85
2021/05/11 11:12:07;;;;;;;2.75;1.70;;;21.70;57.10;;;;;;4736954;30;20548;-86
2021/05/11 11:14:41;;;;;;;2.13;1.65;;;21.80;57.10;;;;;;4751358;30;20033;-85
2021/05/11 11:17:12;;;;;;;2.00;1.55;;;21.80;57.00;;;;;;4742712;30;20024;-85
2021/05/11 11:19:38;;;;;;;3.33;1.85;;;21.90;57.00;;;;;;4752033;30;20536;-87
2021/05/11 11:25:01;;;;;;;2.63;1.65;;;22.10;56.90;;;;;;4752998;30;20040;-86
2021/05/11 11:27:29;;;;;;;1.90;1.50;;;22.10;56.70;;;;;;4737463;30;20478;-86
2021/05/11 11:30:03;;;;;;;2.95;1.70;;;22.20;56.70;;;;;;4752906;30;20119;-85
2021/05/11 11:32:30;;;;;;;1.92;1.40;;;22.20;56.70;;;;;;4764291;30;20028;-87
2021/05/11 11:35:00;;;;;;;1.98;1.48;;;22.30;56.60;;;;;;4751890;30;20040;-87
2021/05/11 11:37:30;;;;;;;2.05;1.50;;;22.30;56.50;;;;;;4755374;30;20122;-88
2021/05/11 11:39:59;;;;;;;2.63;1.98;;;22.40;56.50;;;;;;4762293;30;20071;-87
2021/05/11 11:42:39;;;;;;;1.95;1.40;;;22.40;56.30;;;;;;4742450;30;20108;-87
2021/05/11 11:45:24;;;;;;;1.88;1.38;;;22.50;56.30;;;;;;4760009;30;20483;-88
2021/05/11 11:48:05;;;;;;;2.53;1.50;;;22.50;56.30;;;;;;4763227;30;20036;-87
2021/05/11 11:50:38;;;;;;;3.65;1.75;;;22.60;56.20;;;;;;4765636;30;20034;-82
2021/05/11 11:53:18;;;;;;;2.83;1.55;;;22.60;56.10;;;;;;4738199;30;20398;-90
2021/05/11 11:56:23;;;;;;;1.95;1.58;;;22.60;56.10;;;;;;4758705;30;20032;-86
2021/05/11 11:58:45;;;;;;;3.10;1.75;;;22.70;56.00;;;;;;4760919;30;20176;-86
2021/05/11 12:01:17;;;;;;;2.28;1.55;;;22.70;56.00;;;;;;4752986;30;20130;-85
2021/05/11 12:03:44;;;;;;;3.08;1.70;;;22.70;56.00;;;;;;4760614;30;20130;-94
2021/05/11 12:06:16;;;;;;;3.22;1.92;;;22.70;56.00;;;;;;4724881;30;20490;-85
2021/05/11 12:08:42;;;;;;;2.65;1.73;;;22.70;55.90;;;;;;4751442;30;20043;-85
2021/05/11 12:11:11;;;;;;;2.50;1.73;;;22.70;55.90;;;;;;4751721;30;20036;-90
2021/05/11 12:13:40;;;;;;;3.60;1.50;;;22.80;55.90;;;;;;4750852;30;20036;-89
2021/05/11 12:16:20;;;;;;;4.18;2.00;;;22.80;55.90;;;;;;4736212;30;20086;-90
2021/05/11 12:19:09;;;;;;;2.85;1.67;;;22.80;55.90;;;;;;4762144;30;20048;-93
2021/05/11 12:21:51;;;;;;;3.55;1.63;;;22.80;56.00;;;;;;4736964;30;20048;-92
2021/05/11 12:24:18;;;;;;;2.25;1.70;;;22.70;55.90;;;;;;4758274;30;20458;-93
2021/05/11 12:26:44;;;;;;;2.92;1.60;;;22.70;56.00;;;;;;4746627;30;20024;-96
2021/05/11 12:29:15;;;;;;;2.50;1.55;;;22.70;56.00;;;;;;4767801;30;20467;-94
2021/05/11 12:31:46;;;;;;;4.43;1.65;;;22.70;56.00;;;;;;4755672;30;20478;-95
2021/05/11 12:34:14;;;;;;;2.92;1.70;;;22.70;56.10;;;;;;4759937;30;20024;-95
2021/05/11 12:36:41;;;;;;;3.30;1.77;;;22.70;56.10;;;;;;4753876;30;20028;-94
2021/05/11 12:39:27;;;;;;;2.72;1.70;;;22.70;56.10;;;;;;4772686;30;20485;-91
2021/05/11 12:42:13;;;;;;;3.15;1.65;;;22.60;56.10;;;;;;4762148;30;20046;-91
2021/05/11 12:44:38;;;;;;;2.60;1.60;;;22.60;56.20;;;;;;4754683;30;20029;-89
2021/05/11 12:47:05;;;;;;;3.08;2.13;;;22.60;56.10;;;;;;4754730;30;20093;-90
2021/05/11 12:49:32;;;;;;;2.58;1.70;;;22.60;56.20;;;;;;4757731;30;20043;-88
2021/05/11 12:52:01;;;;;;;3.53;1.83;;;22.60;56.20;;;;;;4765050;30;20024;-90
2021/05/11 12:54:41;;;;;;;2.60;1.65;;;22.50;56.20;;;;;;4756083;30;20119;-89
2021/05/11 13:00:12;;;;;;;3.38;1.65;;;22.50;56.30;;;;;;4739576;30;20068;-86
2021/05/11 13:03:15;;;;;;;2.67;1.77;;;22.50;56.30;;;;;;4754518;30;20497;-93
2021/05/11 13:14:04;;;;;;;3.30;1.98;;;22.40;56.60;;;;;;4764653;30;20036;-89
2021/05/11 13:16:53;;;;;;;2.97;1.83;;;22.40;56.70;;;;;;4754360;30;20127;-89
2021/05/11 13:25:12;;;;;;;4.00;2.17;;;22.30;56.80;;;;;;4754638;30;20071;-89
2021/05/11 13:35:02;;;;;;;3.30;2.20;;;22.20;57.00;;;;;;4740250;30;20490;-90
2021/05/11 13:37:37;;;;;;;3.95;2.00;;;22.20;57.00;;;;;;4752960;30;20040;-89
2021/05/11 13:40:05;;;;;;;4.22;2.22;;;22.10;56.90;;;;;;4739146;30;20059;-90
2021/05/11 13:42:31;;;;;;;3.78;2.03;;;22.10;57.00;;;;;;4756655;30;20024;-90
2021/05/11 13:44:57;;;;;;;4.03;2.35;;;22.10;57.00;;;;;;4741075;30;20114;-90
2021/05/11 13:47:23;;;;;;;2.78;2.00;;;22.10;57.00;;;;;;4724810;30;20028;-88
2021/05/11 13:49:53;;;;;;;2.75;1.90;;;22.10;57.10;;;;;;4754159;30;20089;-90
2021/05/11 13:52:22;;;;;;;3.15;1.95;;;22.10;57.20;;;;;;4753873;30;20043;-91
2021/05/11 13:54:59;;;;;;;3.45;1.80;;;22.00;57.00;;;;;;4753745;30;20040;-90
2021/05/11 14:02:55;;;;;;;2.88;1.80;;;22.00;57.00;;;;;;4754933;30;20028;-90
2021/05/11 14:05:21;;;;;;;2.85;1.85;;;21.90;56.80;;;;;;4724636;30;20044;-90
2021/05/11 14:07:47;;;;;;;2.65;2.00;;;21.90;56.80;;;;;;4753894;30;20163;-90
2021/05/11 14:10:13;;;;;;;3.55;2.00;;;21.90;56.80;;;;;;4741311;30;20050;-90
2021/05/11 14:12:39;;;;;;;3.42;2.08;;;21.80;56.70;;;;;;4749557;30;20024;-90
2021/05/11 14:15:07;;;;;;;2.30;1.73;;;21.80;56.70;;;;;;4739977;30;20509;-90
2021/05/11 14:17:33;;;;;;;2.95;1.77;;;21.80;56.70;;;;;;4748173;30;20027;-90
2021/05/11 14:20:00;;;;;;;4.05;2.10;;;21.80;56.60;;;;;;4755784;30;20040;-90
2021/05/11 14:22:26;;;;;;;2.85;1.73;;;21.80;56.60;;;;;;4753439;30;20086;-90
2021/05/11 14:24:59;;;;;;;2.95;1.85;;;21.70;56.50;;;;;;4753514;30;20032;-91
2021/05/11 14:27:28;;;;;;;3.55;2.10;;;21.70;56.60;;;;;;4743816;30;20097;-91
2021/05/11 14:29:54;;;;;;;2.90;1.85;;;21.70;56.50;;;;;;4745877;30;20121;-90
2021/05/11 14:32:19;;;;;;;2.47;1.63;;;21.70;56.50;;;;;;4738192;30;20078;-91
2021/05/11 14:34:50;;;;;;;3.10;1.77;;;21.60;56.50;;;;;;4738630;30;20036;-89
2021/05/11 14:37:17;;;;;;;3.42;1.80;;;21.60;56.50;;;;;;4738169;30;20043;-90
2021/05/11 14:39:45;;;;;;;2.20;1.52;;;21.60;56.50;;;;;;4753333;30;20048;-89
2021/05/11 14:42:11;;;;;;;5.72;2.30;;;21.60;56.50;;;;;;4723591;30;20115;-90
2021/05/11 14:44:39;;;;;;;2.38;1.70;;;21.50;56.70;;;;;;4759548;30;20028;-91
2021/05/11 14:47:05;;;;;;;3.22;1.88;;;21.50;56.50;;;;;;4746214;30;20141;-90
2021/05/11 14:49:32;;;;;;;3.38;2.00;;;21.50;56.50;;;;;;4752396;30;20036;-91
2021/05/11 14:52:01;;;;;;;2.75;1.70;;;21.50;56.50;;;;;;4752484;30;20045;-91
2021/05/11 14:54:26;;;;;;;3.35;2.00;;;21.50;56.60;;;;;;4737961;30;20059;-87
2021/05/11 14:56:58;;;;;;;2.97;1.95;;;21.40;56.60;;;;;;4752406;30;20032;-92
2021/05/11 14:59:26;;;;;;;3.15;2.10;;;21.40;56.60;;;;;;4736552;30;20091;-92
2021/05/11 15:01:52;;;;;;;2.80;1.90;;;21.40;56.60;;;;;;4753227;30;20376;-92
2021/05/11 15:04:18;;;;;;;3.05;1.90;;;21.40;56.60;;;;;;4736508;30;20056;-87
2021/05/11 15:06:44;;;;;;;4.00;2.30;;;21.40;56.70;;;;;;4750386;30;20380;-91
2021/05/11 15:09:13;;;;;;;3.22;2.30;;;21.30;56.60;;;;;;4757781;30;20502;-87
2021/05/11 15:11:41;;;;;;;3.10;2.10;;;21.30;56.70;;;;;;4751943;30;20036;-88
2021/05/11 15:14:15;;;;;;;3.35;2.20;;;21.30;56.70;;;;;;4761596;30;20032;-93
2021/05/11 15:16:41;;;;;;;3.22;2.35;;;21.30;56.80;;;;;;4743463;30;20032;-90
2021/05/11 15:19:10;;;;;;;3.35;2.38;;;21.30;56.80;;;;;;4728445;30;20135;-90
2021/05/11 15:21:43;;;;;;;4.03;2.53;;;21.30;56.90;;;;;;4752611;30;20091;-89
2021/05/11 15:24:10;;;;;;;3.08;2.40;;;21.20;56.80;;;;;;4753216;30;20067;-91
2021/05/11 15:26:41;;;;;;;3.42;2.38;;;21.20;56.90;;;;;;4737788;30;20031;-90
2021/05/11 15:29:10;;;;;;;3.72;2.67;;;21.20;57.00;;;;;;4751976;30;20127;-90
2021/05/11 15:31:39;;;;;;;3.88;3.05;;;21.20;57.00;;;;;;4744433;30;20089;-88
2021/05/11 15:34:05;;;;;;;3.53;2.42;;;21.20;57.10;;;;;;4737231;30;20044;-90
2021/05/11 15:36:31;;;;;;;3.47;2.60;;;21.10;57.00;;;;;;4723027;30;20039;-88
2021/05/11 15:38:59;;;;;;;4.13;3.20;;;21.10;57.10;;;;;;4749744;30;20040;-90
2021/05/11 15:41:27;;;;;;;3.83;2.88;;;21.10;57.20;;;;;;4741026;30;20040;-89
2021/05/11 15:43:56;;;;;;;4.43;3.08;;;21.10;57.20;;;;;;4755192;30;20127;-90
2021/05/11 15:46:36;;;;;;;4.90;3.22;;;21.10;57.20;;;;;;4745369;30;20082;-89
2021/05/11 15:49:14;;;;;;;5.93;3.20;;;21.00;57.20;;;;;;4751660;30;20044;-91
2021/05/11 15:51:51;;;;;;;4.38;3.33;;;21.00;57.20;;;;;;4751598;30;20033;-89
2021/05/11 15:54:25;;;;;;;4.55;3.35;;;21.00;57.20;;;;;;4751716;30;20071;-92
2021/05/11 15:56:52;;;;;;;4.70;3.50;;;21.00;57.30;;;;;;4751821;30;20060;-91
2021/05/11 15:59:18;;;;;;;4.65;3.28;;;21.00;57.30;;;;;;4721747;30;20055;-90
2021/05/11 16:01:44;;;;;;;4.60;3.45;;;20.90;57.30;;;;;;4722065;30;20510;-88
2021/05/11 16:04:10;;;;;;;4.30;3.13;;;20.90;57.30;;;;;;4736547;30;20038;-89
2021/05/11 16:06:35;;;;;;;4.80;3.55;;;20.90;57.40;;;;;;4736285;30;20040;-89
2021/05/11 16:09:01;;;;;;;4.28;3.42;;;20.90;57.40;;;;;;4754676;30;20032;-88
2021/05/11 16:11:27;;;;;;;4.57;3.50;;;20.90;57.40;;;;;;4753530;30;20131;-89
2021/05/11 16:13:55;;;;;;;4.18;3.33;;;20.90;57.50;;;;;;4751690;30;20043;-91
2021/05/11 16:16:24;;;;;;;4.57;3.78;;;20.80;57.50;;;;;;4743049;30;20497;-89
2021/05/11 16:18:50;;;;;;;4.22;3.33;;;20.80;57.50;;;;;;4735573;30;20051;-89
2021/05/11 16:21:16;;;;;;;4.80;3.80;;;20.80;57.50;;;;;;4737224;30;20040;-90
2021/05/11 16:23:42;;;;;;;4.60;3.55;;;20.80;57.50;;;;;;4741256;30;20091;-90
2021/05/11 16:26:08;;;;;;;4.40;3.53;;;20.80;57.60;;;;;;4733611;30;20032;-89
2021/05/11 16:28:39;;;;;;;5.50;4.28;;;20.80;57.60;;;;;;4738332;30;20036;-89
2021/05/11 16:31:05;;;;;;;4.85;4.07;;;20.80;57.70;;;;;;4737060;30;20044;-91
2021/05/11 16:33:31;;;;;;;5.22;4.15;;;20.80;57.70;;;;;;4751472;30;20035;-87
2021/05/11 16:35:57;;;;;;;5.22;3.90;;;20.70;57.60;;;;;;4721871;30;20049;-88
2021/05/11 16:38:23;;;;;;;5.28;4.03;;;20.70;57.70;;;;;;4752188;30;20455;-88
2021/05/11 16:40:51;;;;;;;4.97;4.07;;;20.70;57.70;;;;;;4751245;30;20074;-88
2021/05/11 16:43:19;;;;;;;6.93;4.70;;;20.70;57.70;;;;;;4760464;30;20066;-91
2021/05/11 16:45:45;;;;;;;5.28;4.30;;;20.70;57.70;;;;;;4755949;30;20047;-90
2021/05/11 16:48:11;;;;;;;5.63;4.43;;;20.70;57.70;;;;;;4745532;30;20024;-83
2021/05/11 16:50:37;;;;;;;5.40;4.50;;;20.70;57.80;;;;;;4720567;30;20044;-87
2021/05/11 16:56:05;;;;;;;5.00;4.10;;;20.60;57.80;;;;;;4747515;30;20036;-90
2021/05/11 16:58:44;;;;;;;5.18;4.32;;;20.60;57.80;;;;;;4734877;30;20044;-91
2021/05/11 17:01:19;;;;;;;5.28;4.38;;;20.60;57.90;;;;;;4749199;30;20059;-90
2021/05/11 17:04:11;;;;;;;4.65;3.85;;;20.60;57.90;;;;;;4737276;30;20490;-93
2021/05/11 17:06:54;;;;;;;;;;;;;;;;;;;;;
2021/05/11 17:09:43;;;;;;;5.03;4.18;;;20.60;58.00;;;;;;4749380;30;20467;-92